sensor_id;sensor_type;location;lat;lon;timestamp;temperature;humidity
51383;DHT22;37475;43.358;1.248;2023-11-19T00:00:47;8.10;93.20
51383;DHT22;37475;43.358;1.248;2023-11-19T00:03:13;8.10;93.30
51383;DHT22;37475;43.358;1.248;2023-11-19T00:05:39;8.10;93.40
51383;DHT22;37475;43.358;1.248;2023-11-19T00:08:05;8.10;93.60
51383;DHT22;37475;43.358;1.248;2023-11-19T00:10:34;8.10;93.90
51383;DHT22;37475;43.358;1.248;2023-11-19T00:12:59;8.10;94.20
51383;DHT22;37475;43.358;1.248;2023-11-19T00:15:25;8.10;94.20
51383;DHT22;37475;43.358;1.248;2023-11-19T00:17:51;8.10;94.20
51383;DHT22;37475;43.358;1.248;2023-11-19T00:20:18;8.10;94.30
51383;DHT22;37475;43.358;1.248;2023-11-19T00:22:44;8.00;94.30
51383;DHT22;37475;43.358;1.248;2023-11-19T00:25:16;8.00;94.30
51383;DHT22;37475;43.358;1.248;2023-11-19T00:27:42;8.10;94.40
51383;DHT22;37475;43.358;1.248;2023-11-19T00:30:11;8.10;94.30
51383;DHT22;37475;43.358;1.248;2023-11-19T00:32:37;8.10;94.20
51383;DHT22;37475;43.358;1.248;2023-11-19T00:35:05;8.10;94.20
51383;DHT22;37475;43.358;1.248;2023-11-19T00:37:32;8.10;94.00
51383;DHT22;37475;43.358;1.248;2023-11-19T00:39:58;8.00;93.90
51383;DHT22;37475;43.358;1.248;2023-11-19T00:42:24;8.00;93.80
51383;DHT22;37475;43.358;1.248;2023-11-19T00:44:50;8.00;93.70
51383;DHT22;37475;43.358;1.248;2023-11-19T00:47:17;8.00;93.50
51383;DHT22;37475;43.358;1.248;2023-11-19T00:49:46;8.00;93.40
51383;DHT22;37475;43.358;1.248;2023-11-19T00:52:14;8.00;93.20
51383;DHT22;37475;43.358;1.248;2023-11-19T00:54:40;7.90;93.00
51383;DHT22;37475;43.358;1.248;2023-11-19T00:57:06;7.90;92.90
51383;DHT22;37475;43.358;1.248;2023-11-19T00:59:32;7.80;92.90
51383;DHT22;37475;43.358;1.248;2023-11-19T01:01:58;7.80;93.50
51383;DHT22;37475;43.358;1.248;2023-11-19T01:04:34;7.80;93.80
51383;DHT22;37475;43.358;1.248;2023-11-19T01:07:02;7.70;94.00
51383;DHT22;37475;43.358;1.248;2023-11-19T01:09:38;7.80;94.20
51383;DHT22;37475;43.358;1.248;2023-11-19T01:12:04;7.80;94.30
51383;DHT22;37475;43.358;1.248;2023-11-19T01:14:30;7.70;94.30
51383;DHT22;37475;43.358;1.248;2023-11-19T01:16:56;7.70;94.50
51383;DHT22;37475;43.358;1.248;2023-11-19T01:19:22;7.70;94.50
51383;DHT22;37475;43.358;1.248;2023-11-19T01:21:51;7.70;94.50
51383;DHT22;37475;43.358;1.248;2023-11-19T01:24:17;7.80;94.60
51383;DHT22;37475;43.358;1.248;2023-11-19T01:26:43;7.80;94.60
51383;DHT22;37475;43.358;1.248;2023-11-19T01:29:14;7.80;94.60
51383;DHT22;37475;43.358;1.248;2023-11-19T01:31:45;7.80;94.50
51383;DHT22;37475;43.358;1.248;2023-11-19T01:34:12;7.70;94.40
51383;DHT22;37475;43.358;1.248;2023-11-19T01:36:38;7.60;94.30
51383;DHT22;37475;43.358;1.248;2023-11-19T01:39:04;7.60;94.40
51383;DHT22;37475;43.358;1.248;2023-11-19T01:41:37;7.70;94.40
51383;DHT22;37475;43.358;1.248;2023-11-19T01:44:06;7.70;94.20
51383;DHT22;37475;43.358;1.248;2023-11-19T01:46:32;7.80;94.20
51383;DHT22;37475;43.358;1.248;2023-11-19T01:48:59;7.70;94.00
51383;DHT22;37475;43.358;1.248;2023-11-19T01:51:25;7.60;93.80
51383;DHT22;37475;43.358;1.248;2023-11-19T01:53:52;7.60;93.80
51383;DHT22;37475;43.358;1.248;2023-11-19T01:56:18;7.70;93.80
51383;DHT22;37475;43.358;1.248;2023-11-19T01:58:44;7.60;93.70
51383;DHT22;37475;43.358;1.248;2023-11-19T02:01:12;7.70;93.60
51383;DHT22;37475;43.358;1.248;2023-11-19T02:03:38;7.60;93.60
51383;DHT22;37475;43.358;1.248;2023-11-19T02:06:05;7.60;93.70
51383;DHT22;37475;43.358;1.248;2023-11-19T02:08:31;7.60;93.90
51383;DHT22;37475;43.358;1.248;2023-11-19T02:10:57;7.60;93.90
51383;DHT22;37475;43.358;1.248;2023-11-19T02:13:26;7.60;94.00
51383;DHT22;37475;43.358;1.248;2023-11-19T02:15:54;7.60;93.90
51383;DHT22;37475;43.358;1.248;2023-11-19T02:18:22;7.60;94.20
51383;DHT22;37475;43.358;1.248;2023-11-19T02:20:51;7.60;94.40
51383;DHT22;37475;43.358;1.248;2023-11-19T02:23:18;7.60;94.40
51383;DHT22;37475;43.358;1.248;2023-11-19T02:26:13;7.60;94.60
51383;DHT22;37475;43.358;1.248;2023-11-19T02:28:42;7.60;94.60
51383;DHT22;37475;43.358;1.248;2023-11-19T02:31:08;7.50;94.50
51383;DHT22;37475;43.358;1.248;2023-11-19T02:33:36;7.40;94.40
51383;DHT22;37475;43.358;1.248;2023-11-19T02:36:06;7.40;94.40
51383;DHT22;37475;43.358;1.248;2023-11-19T02:38:36;7.40;94.40
51383;DHT22;37475;43.358;1.248;2023-11-19T02:41:05;7.40;94.20
51383;DHT22;37475;43.358;1.248;2023-11-19T02:43:32;7.40;94.20
51383;DHT22;37475;43.358;1.248;2023-11-19T02:46:05;7.40;94.00
51383;DHT22;37475;43.358;1.248;2023-11-19T02:48:35;7.30;93.90
51383;DHT22;37475;43.358;1.248;2023-11-19T02:51:01;7.30;93.70
51383;DHT22;37475;43.358;1.248;2023-11-19T02:53:29;7.30;93.60
51383;DHT22;37475;43.358;1.248;2023-11-19T02:55:55;7.20;93.60
51383;DHT22;37475;43.358;1.248;2023-11-19T02:58:27;7.20;93.40
51383;DHT22;37475;43.358;1.248;2023-11-19T03:00:55;7.20;93.30
51383;DHT22;37475;43.358;1.248;2023-11-19T03:03:25;7.20;93.20
51383;DHT22;37475;43.358;1.248;2023-11-19T03:05:57;7.20;93.20
51383;DHT22;37475;43.358;1.248;2023-11-19T03:08:23;7.20;93.10
51383;DHT22;37475;43.358;1.248;2023-11-19T03:10:49;7.30;93.60
51383;DHT22;37475;43.358;1.248;2023-11-19T03:13:15;7.40;94.00
51383;DHT22;37475;43.358;1.248;2023-11-19T03:15:42;7.30;94.10
51383;DHT22;37475;43.358;1.248;2023-11-19T03:18:08;7.30;94.10
51383;DHT22;37475;43.358;1.248;2023-11-19T03:20:34;7.40;94.50
51383;DHT22;37475;43.358;1.248;2023-11-19T03:23:00;7.50;94.70
51383;DHT22;37475;43.358;1.248;2023-11-19T03:25:27;7.50;95.00
51383;DHT22;37475;43.358;1.248;2023-11-19T03:27:59;7.50;95.10
51383;DHT22;37475;43.358;1.248;2023-11-19T03:30:26;7.60;95.20
51383;DHT22;37475;43.358;1.248;2023-11-19T03:32:52;7.60;95.30
51383;DHT22;37475;43.358;1.248;2023-11-19T03:35:18;7.60;95.40
51383;DHT22;37475;43.358;1.248;2023-11-19T03:37:43;7.60;95.50
51383;DHT22;37475;43.358;1.248;2023-11-19T03:40:10;7.60;95.50
51383;DHT22;37475;43.358;1.248;2023-11-19T03:42:36;7.60;95.50
51383;DHT22;37475;43.358;1.248;2023-11-19T03:45:02;7.60;95.50
51383;DHT22;37475;43.358;1.248;2023-11-19T03:47:29;7.60;95.50
51383;DHT22;37475;43.358;1.248;2023-11-19T03:49:55;7.60;95.50
51383;DHT22;37475;43.358;1.248;2023-11-19T03:52:21;7.60;95.40
51383;DHT22;37475;43.358;1.248;2023-11-19T03:54:46;7.60;95.40
51383;DHT22;37475;43.358;1.248;2023-11-19T03:57:13;7.60;95.40
51383;DHT22;37475;43.358;1.248;2023-11-19T03:59:39;7.60;95.40
51383;DHT22;37475;43.358;1.248;2023-11-19T04:02:05;7.60;95.40
51383;DHT22;37475;43.358;1.248;2023-11-19T04:04:32;7.60;95.40
51383;DHT22;37475;43.358;1.248;2023-11-19T04:06:58;7.60;95.40
51383;DHT22;37475;43.358;1.248;2023-11-19T04:09:26;7.60;95.30
51383;DHT22;37475;43.358;1.248;2023-11-19T04:11:52;7.50;95.40
51383;DHT22;37475;43.358;1.248;2023-11-19T04:14:18;7.50;95.40
51383;DHT22;37475;43.358;1.248;2023-11-19T04:16:44;7.50;95.40
51383;DHT22;37475;43.358;1.248;2023-11-19T04:19:11;7.50;95.40
51383;DHT22;37475;43.358;1.248;2023-11-19T04:21:37;7.60;95.40
51383;DHT22;37475;43.358;1.248;2023-11-19T04:24:06;7.60;95.40
51383;DHT22;37475;43.358;1.248;2023-11-19T04:26:33;7.60;95.40
51383;DHT22;37475;43.358;1.248;2023-11-19T04:28:59;7.50;95.40
51383;DHT22;37475;43.358;1.248;2023-11-19T04:31:29;7.50;95.40
51383;DHT22;37475;43.358;1.248;2023-11-19T04:33:57;7.50;95.40
51383;DHT22;37475;43.358;1.248;2023-11-19T04:36:25;7.60;95.40
51383;DHT22;37475;43.358;1.248;2023-11-19T04:38:51;7.60;95.40
51383;DHT22;37475;43.358;1.248;2023-11-19T04:41:16;7.60;95.40
51383;DHT22;37475;43.358;1.248;2023-11-19T04:43:43;7.60;95.40
51383;DHT22;37475;43.358;1.248;2023-11-19T04:46:09;7.60;95.30
51383;DHT22;37475;43.358;1.248;2023-11-19T04:48:35;7.60;95.30
51383;DHT22;37475;43.358;1.248;2023-11-19T04:51:01;7.60;95.20
51383;DHT22;37475;43.358;1.248;2023-11-19T04:53:30;7.60;95.20
51383;DHT22;37475;43.358;1.248;2023-11-19T04:55:56;7.60;95.20
51383;DHT22;37475;43.358;1.248;2023-11-19T04:58:21;7.50;95.20
51383;DHT22;37475;43.358;1.248;2023-11-19T05:00:47;7.50;95.20
51383;DHT22;37475;43.358;1.248;2023-11-19T05:03:13;7.40;95.20
51383;DHT22;37475;43.358;1.248;2023-11-19T05:05:39;7.40;95.30
51383;DHT22;37475;43.358;1.248;2023-11-19T05:08:05;7.40;95.30
51383;DHT22;37475;43.358;1.248;2023-11-19T05:10:30;7.40;95.30
51383;DHT22;37475;43.358;1.248;2023-11-19T05:12:56;7.40;95.30
51383;DHT22;37475;43.358;1.248;2023-11-19T05:15:23;7.40;95.30
51383;DHT22;37475;43.358;1.248;2023-11-19T05:17:49;7.30;95.30
51383;DHT22;37475;43.358;1.248;2023-11-19T05:20:15;7.30;95.40
51383;DHT22;37475;43.358;1.248;2023-11-19T05:22:41;7.30;95.40
51383;DHT22;37475;43.358;1.248;2023-11-19T05:25:08;7.20;95.40
51383;DHT22;37475;43.358;1.248;2023-11-19T05:27:35;7.20;95.40
51383;DHT22;37475;43.358;1.248;2023-11-19T05:30:05;7.30;95.50
51383;DHT22;37475;43.358;1.248;2023-11-19T05:32:36;7.20;95.50
51383;DHT22;37475;43.358;1.248;2023-11-19T05:35:02;7.20;95.50
51383;DHT22;37475;43.358;1.248;2023-11-19T05:37:28;7.20;95.50
51383;DHT22;37475;43.358;1.248;2023-11-19T05:39:54;7.20;95.50
51383;DHT22;37475;43.358;1.248;2023-11-19T05:42:20;7.20;95.50
51383;DHT22;37475;43.358;1.248;2023-11-19T05:44:45;7.10;95.50
51383;DHT22;37475;43.358;1.248;2023-11-19T05:47:11;7.10;95.50
51383;DHT22;37475;43.358;1.248;2023-11-19T05:49:37;7.10;95.50
51383;DHT22;37475;43.358;1.248;2023-11-19T05:52:04;7.10;95.50
51383;DHT22;37475;43.358;1.248;2023-11-19T05:54:33;7.10;95.50
51383;DHT22;37475;43.358;1.248;2023-11-19T05:57:06;7.10;95.50
51383;DHT22;37475;43.358;1.248;2023-11-19T05:59:35;7.10;95.50
51383;DHT22;37475;43.358;1.248;2023-11-19T06:02:02;7.10;95.50
51383;DHT22;37475;43.358;1.248;2023-11-19T06:04:28;7.10;95.50
51383;DHT22;37475;43.358;1.248;2023-11-19T06:06:54;7.10;95.50
51383;DHT22;37475;43.358;1.248;2023-11-19T06:09:23;7.20;95.50
51383;DHT22;37475;43.358;1.248;2023-11-19T06:11:50;7.10;95.40
51383;DHT22;37475;43.358;1.248;2023-11-19T06:14:16;7.10;95.40
51383;DHT22;37475;43.358;1.248;2023-11-19T06:16:42;7.10;95.40
51383;DHT22;37475;43.358;1.248;2023-11-19T06:19:09;7.20;95.40
51383;DHT22;37475;43.358;1.248;2023-11-19T06:21:36;7.20;95.40
51383;DHT22;37475;43.358;1.248;2023-11-19T06:24:02;7.20;95.30
51383;DHT22;37475;43.358;1.248;2023-11-19T06:26:28;7.10;95.20
51383;DHT22;37475;43.358;1.248;2023-11-19T06:28:54;7.10;95.20
51383;DHT22;37475;43.358;1.248;2023-11-19T06:31:20;7.10;95.20
51383;DHT22;37475;43.358;1.248;2023-11-19T06:33:46;7.10;95.00
51383;DHT22;37475;43.358;1.248;2023-11-19T06:36:14;7.00;94.90
51383;DHT22;37475;43.358;1.248;2023-11-19T06:38:42;7.00;95.00
51383;DHT22;37475;43.358;1.248;2023-11-19T06:41:08;7.00;95.00
51383;DHT22;37475;43.358;1.248;2023-11-19T06:43:35;6.90;95.10
51383;DHT22;37475;43.358;1.248;2023-11-19T06:46:02;7.00;95.20
51383;DHT22;37475;43.358;1.248;2023-11-19T06:48:28;6.90;95.20
51383;DHT22;37475;43.358;1.248;2023-11-19T06:50:53;7.00;95.30
51383;DHT22;37475;43.358;1.248;2023-11-19T06:53:19;6.90;95.30
51383;DHT22;37475;43.358;1.248;2023-11-19T06:55:45;6.90;95.40
51383;DHT22;37475;43.358;1.248;2023-11-19T06:58:11;6.90;95.50
51383;DHT22;37475;43.358;1.248;2023-11-19T07:00:38;6.90;95.50
51383;DHT22;37475;43.358;1.248;2023-11-19T07:03:03;7.00;95.50
51383;DHT22;37475;43.358;1.248;2023-11-19T07:05:31;7.00;95.50
51383;DHT22;37475;43.358;1.248;2023-11-19T07:07:57;7.00;95.50
51383;DHT22;37475;43.358;1.248;2023-11-19T07:10:22;7.00;95.50
51383;DHT22;37475;43.358;1.248;2023-11-19T07:12:48;7.10;95.50
51383;DHT22;37475;43.358;1.248;2023-11-19T07:15:15;7.10;95.50
51383;DHT22;37475;43.358;1.248;2023-11-19T07:17:43;7.00;95.40
51383;DHT22;37475;43.358;1.248;2023-11-19T07:20:11;7.00;95.40
51383;DHT22;37475;43.358;1.248;2023-11-19T07:22:38;7.00;95.40
51383;DHT22;37475;43.358;1.248;2023-11-19T07:25:04;7.00;95.40
51383;DHT22;37475;43.358;1.248;2023-11-19T07:27:30;7.10;95.40
51383;DHT22;37475;43.358;1.248;2023-11-19T07:29:56;7.10;95.40
51383;DHT22;37475;43.358;1.248;2023-11-19T07:32:23;7.20;95.40
51383;DHT22;37475;43.358;1.248;2023-11-19T07:34:48;7.20;95.40
51383;DHT22;37475;43.358;1.248;2023-11-19T07:37:14;7.20;95.30
51383;DHT22;37475;43.358;1.248;2023-11-19T07:39:42;7.10;95.20
51383;DHT22;37475;43.358;1.248;2023-11-19T07:42:08;7.20;95.30
51383;DHT22;37475;43.358;1.248;2023-11-19T07:44:34;7.30;95.30
51383;DHT22;37475;43.358;1.248;2023-11-19T07:47:00;7.40;95.30
51383;DHT22;37475;43.358;1.248;2023-11-19T07:49:26;7.40;95.20
51383;DHT22;37475;43.358;1.248;2023-11-19T07:51:52;7.40;95.10
51383;DHT22;37475;43.358;1.248;2023-11-19T07:54:18;7.40;95.20
51383;DHT22;37475;43.358;1.248;2023-11-19T07:56:44;7.40;95.20
51383;DHT22;37475;43.358;1.248;2023-11-19T07:59:09;7.50;95.20
51383;DHT22;37475;43.358;1.248;2023-11-19T08:01:35;7.60;95.30
51383;DHT22;37475;43.358;1.248;2023-11-19T08:04:01;7.70;95.30
51383;DHT22;37475;43.358;1.248;2023-11-19T08:06:27;7.80;95.30
51383;DHT22;37475;43.358;1.248;2023-11-19T08:08:53;7.90;95.20
51383;DHT22;37475;43.358;1.248;2023-11-19T08:11:19;8.00;95.20
51383;DHT22;37475;43.358;1.248;2023-11-19T08:13:48;8.10;95.20
51383;DHT22;37475;43.358;1.248;2023-11-19T08:16:14;8.10;95.20
51383;DHT22;37475;43.358;1.248;2023-11-19T08:18:42;8.30;95.20
51383;DHT22;37475;43.358;1.248;2023-11-19T08:21:08;8.40;95.10
51383;DHT22;37475;43.358;1.248;2023-11-19T08:23:35;8.50;95.10
51383;DHT22;37475;43.358;1.248;2023-11-19T08:26:01;8.60;95.00
51383;DHT22;37475;43.358;1.248;2023-11-19T08:28:27;8.60;94.90
51383;DHT22;37475;43.358;1.248;2023-11-19T08:30:53;8.70;94.90
51383;DHT22;37475;43.358;1.248;2023-11-19T08:33:19;8.80;94.70
51383;DHT22;37475;43.358;1.248;2023-11-19T08:35:47;8.90;94.50
51383;DHT22;37475;43.358;1.248;2023-11-19T08:38:13;9.00;94.40
51383;DHT22;37475;43.358;1.248;2023-11-19T08:40:39;9.10;94.20
51383;DHT22;37475;43.358;1.248;2023-11-19T08:43:05;9.20;94.00
51383;DHT22;37475;43.358;1.248;2023-11-19T08:45:32;9.30;93.80
51383;DHT22;37475;43.358;1.248;2023-11-19T08:47:57;9.40;93.80
51383;DHT22;37475;43.358;1.248;2023-11-19T08:50:23;9.40;93.60
51383;DHT22;37475;43.358;1.248;2023-11-19T08:52:49;9.40;93.30
51383;DHT22;37475;43.358;1.248;2023-11-19T08:55:15;9.50;93.00
51383;DHT22;37475;43.358;1.248;2023-11-19T08:57:41;9.50;92.80
51383;DHT22;37475;43.358;1.248;2023-11-19T09:00:07;9.60;92.60
51383;DHT22;37475;43.358;1.248;2023-11-19T09:02:34;9.80;92.70
51383;DHT22;37475;43.358;1.248;2023-11-19T09:05:02;9.80;92.30
51383;DHT22;37475;43.358;1.248;2023-11-19T09:07:29;10.00;92.30
51383;DHT22;37475;43.358;1.248;2023-11-19T09:09:55;10.10;91.90
51383;DHT22;37475;43.358;1.248;2023-11-19T09:12:20;10.20;91.80
51383;DHT22;37475;43.358;1.248;2023-11-19T09:14:46;10.30;91.70
51383;DHT22;37475;43.358;1.248;2023-11-19T09:17:12;10.50;91.50
51383;DHT22;37475;43.358;1.248;2023-11-19T09:19:38;10.60;91.30
51383;DHT22;37475;43.358;1.248;2023-11-19T09:22:03;10.60;91.00
51383;DHT22;37475;43.358;1.248;2023-11-19T09:24:29;10.90;90.80
51383;DHT22;37475;43.358;1.248;2023-11-19T09:26:55;10.90;90.70
51383;DHT22;37475;43.358;1.248;2023-11-19T09:29:22;11.10;90.70
51383;DHT22;37475;43.358;1.248;2023-11-19T09:31:47;11.10;90.40
51383;DHT22;37475;43.358;1.248;2023-11-19T09:34:13;11.30;90.10
51383;DHT22;37475;43.358;1.248;2023-11-19T09:36:39;11.40;90.20
51383;DHT22;37475;43.358;1.248;2023-11-19T09:39:10;11.60;90.00
51383;DHT22;37475;43.358;1.248;2023-11-19T09:41:36;11.70;89.90
51383;DHT22;37475;43.358;1.248;2023-11-19T09:44:02;11.80;89.60
51383;DHT22;37475;43.358;1.248;2023-11-19T09:46:28;11.90;89.20
51383;DHT22;37475;43.358;1.248;2023-11-19T09:48:56;12.10;89.30
51383;DHT22;37475;43.358;1.248;2023-11-19T09:51:24;12.20;88.90
51383;DHT22;37475;43.358;1.248;2023-11-19T09:53:50;12.30;88.30
51383;DHT22;37475;43.358;1.248;2023-11-19T09:56:16;12.50;88.10
51383;DHT22;37475;43.358;1.248;2023-11-19T09:58:42;12.60;87.80
51383;DHT22;37475;43.358;1.248;2023-11-19T10:01:08;13.10;87.50
51383;DHT22;37475;43.358;1.248;2023-11-19T10:03:38;13.40;86.90
51383;DHT22;37475;43.358;1.248;2023-11-19T10:06:08;13.60;85.80
51383;DHT22;37475;43.358;1.248;2023-11-19T10:08:39;13.90;84.60
51383;DHT22;37475;43.358;1.248;2023-11-19T10:11:07;14.40;83.80
51383;DHT22;37475;43.358;1.248;2023-11-19T10:13:35;14.70;83.20
51383;DHT22;37475;43.358;1.248;2023-11-19T10:16:07;15.60;81.60
51383;DHT22;37475;43.358;1.248;2023-11-19T10:18:34;16.00;78.20
51383;DHT22;37475;43.358;1.248;2023-11-19T10:21:06;16.00;78.60
51383;DHT22;37475;43.358;1.248;2023-11-19T10:23:54;16.20;76.60
51383;DHT22;37475;43.358;1.248;2023-11-19T10:26:26;17.40;77.10
51383;DHT22;37475;43.358;1.248;2023-11-19T10:28:52;17.70;72.50
51383;DHT22;37475;43.358;1.248;2023-11-19T10:31:20;18.40;71.50
51383;DHT22;37475;43.358;1.248;2023-11-19T10:33:51;19.00;71.20
51383;DHT22;37475;43.358;1.248;2023-11-19T10:36:17;18.30;68.30
51383;DHT22;37475;43.358;1.248;2023-11-19T10:38:56;17.90;69.00
51383;DHT22;37475;43.358;1.248;2023-11-19T10:41:29;18.00;71.90
51383;DHT22;37475;43.358;1.248;2023-11-19T10:43:56;18.10;69.50
51383;DHT22;37475;43.358;1.248;2023-11-19T10:46:22;18.40;70.50
51383;DHT22;37475;43.358;1.248;2023-11-19T10:48:52;17.50;71.40
51383;DHT22;37475;43.358;1.248;2023-11-19T10:51:20;18.00;70.00
51383;DHT22;37475;43.358;1.248;2023-11-19T10:53:49;18.60;70.30
51383;DHT22;37475;43.358;1.248;2023-11-19T10:56:16;19.30;67.90
51383;DHT22;37475;43.358;1.248;2023-11-19T10:58:45;19.80;66.20
51383;DHT22;37475;43.358;1.248;2023-11-19T11:01:19;20.30;65.50
51383;DHT22;37475;43.358;1.248;2023-11-19T11:03:51;19.90;63.70
51383;DHT22;37475;43.358;1.248;2023-11-19T11:06:19;18.90;64.90
51383;DHT22;37475;43.358;1.248;2023-11-19T11:08:48;18.80;65.80
51383;DHT22;37475;43.358;1.248;2023-11-19T11:11:15;19.30;66.00
51383;DHT22;37475;43.358;1.248;2023-11-19T11:13:43;20.40;65.40
51383;DHT22;37475;43.358;1.248;2023-11-19T11:16:09;21.00;63.00
51383;DHT22;37475;43.358;1.248;2023-11-19T11:18:36;20.60;59.70
51383;DHT22;37475;43.358;1.248;2023-11-19T11:21:08;20.30;62.20
51383;DHT22;37475;43.358;1.248;2023-11-19T11:35:30;20.30;64.10
51383;DHT22;37475;43.358;1.248;2023-11-19T11:38:21;20.50;61.70
51383;DHT22;37475;43.358;1.248;2023-11-19T11:41:19;20.60;62.20
51383;DHT22;37475;43.358;1.248;2023-11-19T11:43:50;21.30;60.40
51383;DHT22;37475;43.358;1.248;2023-11-19T11:49:04;23.10;55.70
51383;DHT22;37475;43.358;1.248;2023-11-19T11:54:25;23.80;51.90
51383;DHT22;37475;43.358;1.248;2023-11-19T11:57:07;23.10;53.70
51383;DHT22;37475;43.358;1.248;2023-11-19T11:59:50;24.10;50.30
51383;DHT22;37475;43.358;1.248;2023-11-19T12:02:20;23.30;53.80
51383;DHT22;37475;43.358;1.248;2023-11-19T12:04:51;24.10;52.50
51383;DHT22;37475;43.358;1.248;2023-11-19T12:07:22;23.00;53.00
51383;DHT22;37475;43.358;1.248;2023-11-19T12:09:57;23.30;53.90
51383;DHT22;37475;43.358;1.248;2023-11-19T12:12:33;22.50;54.20
51383;DHT22;37475;43.358;1.248;2023-11-19T12:15:18;21.50;58.20
51383;DHT22;37475;43.358;1.248;2023-11-19T12:17:49;22.60;55.70
51383;DHT22;37475;43.358;1.248;2023-11-19T12:20:16;23.80;53.20
51383;DHT22;37475;43.358;1.248;2023-11-19T12:22:44;23.40;52.20
51383;DHT22;37475;43.358;1.248;2023-11-19T12:25:12;24.00;52.80
51383;DHT22;37475;43.358;1.248;2023-11-19T12:27:49;25.10;49.30
51383;DHT22;37475;43.358;1.248;2023-11-19T12:30:23;24.70;46.90
51383;DHT22;37475;43.358;1.248;2023-11-19T12:32:50;24.80;48.20
51383;DHT22;37475;43.358;1.248;2023-11-19T12:35:18;25.60;47.10
51383;DHT22;37475;43.358;1.248;2023-11-19T12:40:22;26.10;44.50
51383;DHT22;37475;43.358;1.248;2023-11-19T12:42:49;26.30;43.50
51383;DHT22;37475;43.358;1.248;2023-11-19T12:45:19;24.40;47.90
51383;DHT22;37475;43.358;1.248;2023-11-19T12:47:47;23.80;48.60
51383;DHT22;37475;43.358;1.248;2023-11-19T12:50:15;25.00;45.30
51383;DHT22;37475;43.358;1.248;2023-11-19T12:52:58;25.30;45.60
51383;DHT22;37475;43.358;1.248;2023-11-19T12:55:25;26.30;44.30
51383;DHT22;37475;43.358;1.248;2023-11-19T12:57:52;26.60;41.70
51383;DHT22;37475;43.358;1.248;2023-11-19T13:00:22;26.30;44.70
51383;DHT22;37475;43.358;1.248;2023-11-19T13:02:50;26.20;42.80
51383;DHT22;37475;43.358;1.248;2023-11-19T13:05:35;26.30;42.60
51383;DHT22;37475;43.358;1.248;2023-11-19T13:10:51;25.40;45.50
51383;DHT22;37475;43.358;1.248;2023-11-19T13:13:19;27.70;39.80
51383;DHT22;37475;43.358;1.248;2023-11-19T13:15:45;26.10;42.80
51383;DHT22;37475;43.358;1.248;2023-11-19T13:18:11;24.90;43.60
51383;DHT22;37475;43.358;1.248;2023-11-19T13:23:05;24.40;45.70
51383;DHT22;37475;43.358;1.248;2023-11-19T13:25:32;24.70;45.20
51383;DHT22;37475;43.358;1.248;2023-11-19T13:27:59;24.90;44.10
51383;DHT22;37475;43.358;1.248;2023-11-19T13:30:25;26.00;43.40
51383;DHT22;37475;43.358;1.248;2023-11-19T13:32:52;26.10;42.10
51383;DHT22;37475;43.358;1.248;2023-11-19T13:35:18;26.60;41.60
51383;DHT22;37475;43.358;1.248;2023-11-19T13:37:45;27.10;40.70
51383;DHT22;37475;43.358;1.248;2023-11-19T13:40:11;27.70;41.40
51383;DHT22;37475;43.358;1.248;2023-11-19T13:42:44;27.10;40.20
51383;DHT22;37475;43.358;1.248;2023-11-19T13:45:11;27.00;41.00
51383;DHT22;37475;43.358;1.248;2023-11-19T13:47:45;27.20;40.60
51383;DHT22;37475;43.358;1.248;2023-11-19T13:50:13;27.10;40.10
51383;DHT22;37475;43.358;1.248;2023-11-19T13:52:43;28.10;39.90
51383;DHT22;37475;43.358;1.248;2023-11-19T13:55:11;28.50;40.80
51383;DHT22;37475;43.358;1.248;2023-11-19T13:57:39;29.00;38.30
51383;DHT22;37475;43.358;1.248;2023-11-19T14:00:07;29.70;37.30
51383;DHT22;37475;43.358;1.248;2023-11-19T14:02:46;28.80;38.80
51383;DHT22;37475;43.358;1.248;2023-11-19T14:05:13;27.90;40.50
51383;DHT22;37475;43.358;1.248;2023-11-19T14:07:40;28.20;39.10
51383;DHT22;37475;43.358;1.248;2023-11-19T14:10:07;29.00;36.70
51383;DHT22;37475;43.358;1.248;2023-11-19T14:12:37;29.30;37.00
51383;DHT22;37475;43.358;1.248;2023-11-19T14:15:04;29.70;36.30
51383;DHT22;37475;43.358;1.248;2023-11-19T14:17:35;29.40;37.50
51383;DHT22;37475;43.358;1.248;2023-11-19T14:20:02;29.20;38.30
51383;DHT22;37475;43.358;1.248;2023-11-19T14:22:45;29.40;38.40
51383;DHT22;37475;43.358;1.248;2023-11-19T14:25:15;28.80;37.90
51383;DHT22;37475;43.358;1.248;2023-11-19T14:27:43;29.50;38.70
51383;DHT22;37475;43.358;1.248;2023-11-19T14:30:10;30.10;37.40
51383;DHT22;37475;43.358;1.248;2023-11-19T14:32:41;30.10;37.50
51383;DHT22;37475;43.358;1.248;2023-11-19T14:35:11;29.90;35.60
51383;DHT22;37475;43.358;1.248;2023-11-19T14:37:37;30.00;37.10
51383;DHT22;37475;43.358;1.248;2023-11-19T14:40:03;30.20;36.60
51383;DHT22;37475;43.358;1.248;2023-11-19T14:42:31;30.00;37.60
51383;DHT22;37475;43.358;1.248;2023-11-19T14:44:57;29.90;36.50
51383;DHT22;37475;43.358;1.248;2023-11-19T14:47:23;30.00;36.40
51383;DHT22;37475;43.358;1.248;2023-11-19T14:49:49;29.90;37.20
51383;DHT22;37475;43.358;1.248;2023-11-19T14:52:15;30.30;38.20
51383;DHT22;37475;43.358;1.248;2023-11-19T14:54:40;30.40;36.20
51383;DHT22;37475;43.358;1.248;2023-11-19T14:57:07;30.60;35.80
51383;DHT22;37475;43.358;1.248;2023-11-19T14:59:34;30.60;36.00
51383;DHT22;37475;43.358;1.248;2023-11-19T15:02:00;30.00;35.50
51383;DHT22;37475;43.358;1.248;2023-11-19T15:04:29;30.10;36.80
51383;DHT22;37475;43.358;1.248;2023-11-19T15:06:57;30.20;38.00
51383;DHT22;37475;43.358;1.248;2023-11-19T15:09:23;30.30;38.50
51383;DHT22;37475;43.358;1.248;2023-11-19T15:11:50;30.10;37.10
51383;DHT22;37475;43.358;1.248;2023-11-19T15:14:16;29.50;37.80
51383;DHT22;37475;43.358;1.248;2023-11-19T15:16:45;29.30;38.30
51383;DHT22;37475;43.358;1.248;2023-11-19T15:19:12;29.30;38.90
51383;DHT22;37475;43.358;1.248;2023-11-19T15:21:40;29.30;39.20
51383;DHT22;37475;43.358;1.248;2023-11-19T15:24:09;28.80;39.10
51383;DHT22;37475;43.358;1.248;2023-11-19T15:26:37;28.80;39.30
51383;DHT22;37475;43.358;1.248;2023-11-19T15:29:04;28.50;40.30
51383;DHT22;37475;43.358;1.248;2023-11-19T15:31:30;27.90;40.20
51383;DHT22;37475;43.358;1.248;2023-11-19T15:33:57;27.60;41.30
51383;DHT22;37475;43.358;1.248;2023-11-19T15:36:23;26.90;42.20
51383;DHT22;37475;43.358;1.248;2023-11-19T15:38:49;26.30;43.60
51383;DHT22;37475;43.358;1.248;2023-11-19T15:41:14;25.70;44.50
51383;DHT22;37475;43.358;1.248;2023-11-19T15:43:40;25.20;45.80
51383;DHT22;37475;43.358;1.248;2023-11-19T15:46:08;24.90;46.30
51383;DHT22;37475;43.358;1.248;2023-11-19T15:48:34;24.40;48.00
51383;DHT22;37475;43.358;1.248;2023-11-19T15:51:00;24.00;48.50
51383;DHT22;37475;43.358;1.248;2023-11-19T15:53:27;23.70;49.00
51383;DHT22;37475;43.358;1.248;2023-11-19T15:55:53;23.40;50.50
51383;DHT22;37475;43.358;1.248;2023-11-19T15:58:19;23.10;50.90
51383;DHT22;37475;43.358;1.248;2023-11-19T16:00:46;22.70;52.00
51383;DHT22;37475;43.358;1.248;2023-11-19T16:03:13;22.40;53.40
51383;DHT22;37475;43.358;1.248;2023-11-19T16:05:39;22.10;54.50
51383;DHT22;37475;43.358;1.248;2023-11-19T16:08:05;21.80;54.60